sensor_id;sensor_type;location;lat;lon;timestamp;temperature;humidity
34877;DHT22;21086;44.780;17.194;2022-07-24T00:01:39;26.50;99.90
34877;DHT22;21086;44.780;17.194;2022-07-24T00:04:06;26.40;99.90
34877;DHT22;21086;44.780;17.194;2022-07-24T00:06:34;26.40;99.90
34877;DHT22;21086;44.780;17.194;2022-07-24T00:09:00;26.30;99.90
34877;DHT22;21086;44.780;17.194;2022-07-24T00:11:28;26.20;99.90
34877;DHT22;21086;44.780;17.194;2022-07-24T00:13:55;26.10;99.90
34877;DHT22;21086;44.780;17.194;2022-07-24T00:16:23;26.10;99.90
34877;DHT22;21086;44.780;17.194;2022-07-24T00:18:50;26.10;99.90
34877;DHT22;21086;44.780;17.194;2022-07-24T00:21:17;26.10;99.90
34877;DHT22;21086;44.780;17.194;2022-07-24T00:23:43;26.00;99.90
34877;DHT22;21086;44.780;17.194;2022-07-24T00:26:11;26.00;99.90
34877;DHT22;21086;44.780;17.194;2022-07-24T00:28:39;26.00;99.90
34877;DHT22;21086;44.780;17.194;2022-07-24T00:31:06;25.80;99.90
34877;DHT22;21086;44.780;17.194;2022-07-24T00:33:33;25.70;99.90
34877;DHT22;21086;44.780;17.194;2022-07-24T00:36:01;23.90;99.90
34877;DHT22;21086;44.780;17.194;2022-07-24T00:38:28;25.50;99.90
34877;DHT22;21086;44.780;17.194;2022-07-24T00:40:55;25.60;99.90
34877;DHT22;21086;44.780;17.194;2022-07-24T00:43:22;25.50;99.90
34877;DHT22;21086;44.780;17.194;2022-07-24T00:45:49;25.50;99.90
34877;DHT22;21086;44.780;17.194;2022-07-24T00:48:17;25.50;99.90
34877;DHT22;21086;44.780;17.194;2022-07-24T00:50:46;25.40;99.90
34877;DHT22;21086;44.780;17.194;2022-07-24T00:53:14;25.50;99.90
34877;DHT22;21086;44.780;17.194;2022-07-24T00:55:42;25.50;99.90
34877;DHT22;21086;44.780;17.194;2022-07-24T00:58:09;25.50;99.90
34877;DHT22;21086;44.780;17.194;2022-07-24T01:00:36;25.60;99.90
34877;DHT22;21086;44.780;17.194;2022-07-24T01:03:02;25.60;99.90
34877;DHT22;21086;44.780;17.194;2022-07-24T01:05:29;25.50;99.90
34877;DHT22;21086;44.780;17.194;2022-07-24T01:07:56;25.40;99.90
34877;DHT22;21086;44.780;17.194;2022-07-24T01:10:23;25.30;99.90
34877;DHT22;21086;44.780;17.194;2022-07-24T01:12:50;25.30;99.90
34877;DHT22;21086;44.780;17.194;2022-07-24T01:15:17;25.30;99.90
34877;DHT22;21086;44.780;17.194;2022-07-24T01:17:45;25.20;99.90
34877;DHT22;21086;44.780;17.194;2022-07-24T01:20:12;25.10;99.90
34877;DHT22;21086;44.780;17.194;2022-07-24T01:22:38;25.10;99.90
34877;DHT22;21086;44.780;17.194;2022-07-24T01:25:06;25.20;99.90
34877;DHT22;21086;44.780;17.194;2022-07-24T01:27:33;25.20;99.90
34877;DHT22;21086;44.780;17.194;2022-07-24T01:30:00;25.10;99.90
34877;DHT22;21086;44.780;17.194;2022-07-24T01:32:27;25.20;99.90
34877;DHT22;21086;44.780;17.194;2022-07-24T01:34:54;25.10;99.90
34877;DHT22;21086;44.780;17.194;2022-07-24T01:37:21;25.10;99.90
34877;DHT22;21086;44.780;17.194;2022-07-24T01:39:48;25.10;99.90
34877;DHT22;21086;44.780;17.194;2022-07-24T01:42:15;25.10;99.90
34877;DHT22;21086;44.780;17.194;2022-07-24T01:44:42;24.90;99.90
34877;DHT22;21086;44.780;17.194;2022-07-24T01:47:09;24.80;99.90
34877;DHT22;21086;44.780;17.194;2022-07-24T01:49:36;24.70;99.90
34877;DHT22;21086;44.780;17.194;2022-07-24T01:52:03;24.70;99.90
34877;DHT22;21086;44.780;17.194;2022-07-24T01:54:30;24.80;99.90
34877;DHT22;21086;44.780;17.194;2022-07-24T01:56:57;24.90;99.90
34877;DHT22;21086;44.780;17.194;2022-07-24T01:59:24;24.90;99.90
34877;DHT22;21086;44.780;17.194;2022-07-24T02:01:51;24.90;99.90
34877;DHT22;21086;44.780;17.194;2022-07-24T02:04:20;24.80;99.90
34877;DHT22;21086;44.780;17.194;2022-07-24T02:06:47;24.80;99.90
34877;DHT22;21086;44.780;17.194;2022-07-24T02:09:14;24.80;99.90
34877;DHT22;21086;44.780;17.194;2022-07-24T02:11:42;24.90;99.90
34877;DHT22;21086;44.780;17.194;2022-07-24T02:14:09;24.90;99.90
34877;DHT22;21086;44.780;17.194;2022-07-24T02:16:37;24.90;99.90
34877;DHT22;21086;44.780;17.194;2022-07-24T02:19:04;24.90;99.90
34877;DHT22;21086;44.780;17.194;2022-07-24T02:21:32;24.90;99.90
34877;DHT22;21086;44.780;17.194;2022-07-24T02:23:59;24.80;99.90
34877;DHT22;21086;44.780;17.194;2022-07-24T02:26:26;24.80;99.90
34877;DHT22;21086;44.780;17.194;2022-07-24T02:28:53;24.80;99.90
34877;DHT22;21086;44.780;17.194;2022-07-24T02:31:19;24.60;99.90
34877;DHT22;21086;44.780;17.194;2022-07-24T02:33:47;24.60;99.90
34877;DHT22;21086;44.780;17.194;2022-07-24T02:36:14;24.60;99.90
34877;DHT22;21086;44.780;17.194;2022-07-24T02:38:42;24.50;99.90
34877;DHT22;21086;44.780;17.194;2022-07-24T02:41:10;24.40;99.90
34877;DHT22;21086;44.780;17.194;2022-07-24T02:43:36;24.30;99.90
34877;DHT22;21086;44.780;17.194;2022-07-24T02:46:03;24.20;99.90
34877;DHT22;21086;44.780;17.194;2022-07-24T02:48:30;24.20;99.90
34877;DHT22;21086;44.780;17.194;2022-07-24T02:50:57;24.20;99.90
34877;DHT22;21086;44.780;17.194;2022-07-24T02:53:24;24.20;99.90
34877;DHT22;21086;44.780;17.194;2022-07-24T02:55:51;24.30;99.90
34877;DHT22;21086;44.780;17.194;2022-07-24T02:58:18;24.20;99.90
34877;DHT22;21086;44.780;17.194;2022-07-24T03:00:45;24.10;99.90
34877;DHT22;21086;44.780;17.194;2022-07-24T03:03:12;24.10;99.90
34877;DHT22;21086;44.780;17.194;2022-07-24T03:05:39;24.10;99.90
34877;DHT22;21086;44.780;17.194;2022-07-24T03:08:06;24.10;99.90
34877;DHT22;21086;44.780;17.194;2022-07-24T03:10:33;24.00;99.90
34877;DHT22;21086;44.780;17.194;2022-07-24T03:13:00;23.90;99.90
34877;DHT22;21086;44.780;17.194;2022-07-24T03:15:27;23.80;99.90
34877;DHT22;21086;44.780;17.194;2022-07-24T03:17:55;23.80;99.90
34877;DHT22;21086;44.780;17.194;2022-07-24T03:20:26;23.70;99.90
34877;DHT22;21086;44.780;17.194;2022-07-24T03:22:54;23.70;99.90
34877;DHT22;21086;44.780;17.194;2022-07-24T03:25:22;23.70;99.90
34877;DHT22;21086;44.780;17.194;2022-07-24T03:27:50;23.70;99.90
34877;DHT22;21086;44.780;17.194;2022-07-24T03:30:17;23.70;99.90
34877;DHT22;21086;44.780;17.194;2022-07-24T03:32:45;23.80;99.90
34877;DHT22;21086;44.780;17.194;2022-07-24T03:35:12;23.90;99.90
34877;DHT22;21086;44.780;17.194;2022-07-24T03:37:39;23.90;99.90
34877;DHT22;21086;44.780;17.194;2022-07-24T03:40:06;23.90;99.90
34877;DHT22;21086;44.780;17.194;2022-07-24T03:42:34;23.90;99.90
34877;DHT22;21086;44.780;17.194;2022-07-24T03:45:01;24.00;99.90
34877;DHT22;21086;44.780;17.194;2022-07-24T03:47:28;24.10;99.90
34877;DHT22;21086;44.780;17.194;2022-07-24T03:49:55;24.10;99.90
34877;DHT22;21086;44.780;17.194;2022-07-24T03:52:22;24.10;99.90
34877;DHT22;21086;44.780;17.194;2022-07-24T03:54:51;24.10;99.90
34877;DHT22;21086;44.780;17.194;2022-07-24T03:57:18;24.10;99.90
34877;DHT22;21086;44.780;17.194;2022-07-24T03:59:45;24.10;99.90
34877;DHT22;21086;44.780;17.194;2022-07-24T04:02:12;24.20;99.90
34877;DHT22;21086;44.780;17.194;2022-07-24T04:04:39;24.30;99.90
34877;DHT22;21086;44.780;17.194;2022-07-24T04:07:06;24.30;99.90
34877;DHT22;21086;44.780;17.194;2022-07-24T04:09:33;24.40;99.90
34877;DHT22;21086;44.780;17.194;2022-07-24T04:12:00;24.40;99.90
34877;DHT22;21086;44.780;17.194;2022-07-24T04:14:27;24.40;99.90
34877;DHT22;21086;44.780;17.194;2022-07-24T04:16:54;24.50;99.90
34877;DHT22;21086;44.780;17.194;2022-07-24T04:19:22;24.50;99.90
34877;DHT22;21086;44.780;17.194;2022-07-24T04:21:49;24.60;99.90
34877;DHT22;21086;44.780;17.194;2022-07-24T04:24:16;24.60;99.90
34877;DHT22;21086;44.780;17.194;2022-07-24T04:26:43;24.60;99.90
34877;DHT22;21086;44.780;17.194;2022-07-24T04:29:10;24.70;99.90
34877;DHT22;21086;44.780;17.194;2022-07-24T04:31:37;24.70;99.90
34877;DHT22;21086;44.780;17.194;2022-07-24T04:34:05;24.80;99.90
34877;DHT22;21086;44.780;17.194;2022-07-24T04:36:31;24.80;99.90
34877;DHT22;21086;44.780;17.194;2022-07-24T04:38:58;24.90;99.90
34877;DHT22;21086;44.780;17.194;2022-07-24T04:41:32;24.90;99.90
34877;DHT22;21086;44.780;17.194;2022-07-24T04:43:59;25.00;99.90
34877;DHT22;21086;44.780;17.194;2022-07-24T04:46:25;25.10;99.90
34877;DHT22;21086;44.780;17.194;2022-07-24T04:48:53;25.20;99.90
34877;DHT22;21086;44.780;17.194;2022-07-24T04:51:20;25.20;99.90
34877;DHT22;21086;44.780;17.194;2022-07-24T04:53:47;25.20;99.90
34877;DHT22;21086;44.780;17.194;2022-07-24T04:56:14;25.30;99.90
34877;DHT22;21086;44.780;17.194;2022-07-24T04:58:41;25.30;99.90
34877;DHT22;21086;44.780;17.194;2022-07-24T05:01:08;25.40;99.90
34877;DHT22;21086;44.780;17.194;2022-07-24T05:03:35;25.50;99.90
34877;DHT22;21086;44.780;17.194;2022-07-24T05:06:03;25.60;99.90
34877;DHT22;21086;44.780;17.194;2022-07-24T05:08:29;25.70;99.90
34877;DHT22;21086;44.780;17.194;2022-07-24T05:10:56;25.80;99.90
34877;DHT22;21086;44.780;17.194;2022-07-24T05:13:23;25.80;99.90
34877;DHT22;21086;44.780;17.194;2022-07-24T05:15:50;26.00;99.90
34877;DHT22;21086;44.780;17.194;2022-07-24T05:18:17;26.00;99.90
34877;DHT22;21086;44.780;17.194;2022-07-24T05:20:44;26.10;99.90
34877;DHT22;21086;44.780;17.194;2022-07-24T05:23:11;26.10;99.90
34877;DHT22;21086;44.780;17.194;2022-07-24T05:25:38;26.20;99.90
34877;DHT22;21086;44.780;17.194;2022-07-24T05:28:04;26.30;99.90
34877;DHT22;21086;44.780;17.194;2022-07-24T05:30:31;26.20;99.90
34877;DHT22;21086;44.780;17.194;2022-07-24T05:32:58;26.20;99.90
34877;DHT22;21086;44.780;17.194;2022-07-24T05:35:26;26.30;99.90
34877;DHT22;21086;44.780;17.194;2022-07-24T05:37:56;26.30;99.90
34877;DHT22;21086;44.780;17.194;2022-07-24T05:40:23;26.40;99.90
34877;DHT22;21086;44.780;17.194;2022-07-24T05:42:50;26.50;99.90
34877;DHT22;21086;44.780;17.194;2022-07-24T05:45:16;26.50;99.90
34877;DHT22;21086;44.780;17.194;2022-07-24T05:47:43;26.60;99.90
34877;DHT22;21086;44.780;17.194;2022-07-24T05:50:12;26.60;99.90
34877;DHT22;21086;44.780;17.194;2022-07-24T05:52:40;26.60;99.90
34877;DHT22;21086;44.780;17.194;2022-07-24T05:55:08;26.40;99.90
34877;DHT22;21086;44.780;17.194;2022-07-24T05:57:45;26.50;99.90
34877;DHT22;21086;44.780;17.194;2022-07-24T06:00:14;26.60;99.90
34877;DHT22;21086;44.780;17.194;2022-07-24T06:02:44;26.80;99.90
34877;DHT22;21086;44.780;17.194;2022-07-24T06:05:13;27.00;99.90
34877;DHT22;21086;44.780;17.194;2022-07-24T06:07:44;27.00;99.90
34877;DHT22;21086;44.780;17.194;2022-07-24T06:10:11;27.00;99.90
34877;DHT22;21086;44.780;17.194;2022-07-24T06:12:41;26.90;99.90
34877;DHT22;21086;44.780;17.194;2022-07-24T06:15:09;26.70;99.90
34877;DHT22;21086;44.780;17.194;2022-07-24T06:17:36;26.70;99.90
34877;DHT22;21086;44.780;17.194;2022-07-24T06:20:05;26.60;99.90
34877;DHT22;21086;44.780;17.194;2022-07-24T06:22:32;26.50;99.90
34877;DHT22;21086;44.780;17.194;2022-07-24T06:24:58;26.60;99.90
34877;DHT22;21086;44.780;17.194;2022-07-24T06:27:25;26.60;99.90
34877;DHT22;21086;44.780;17.194;2022-07-24T06:29:52;26.70;99.90
34877;DHT22;21086;44.780;17.194;2022-07-24T06:32:19;26.80;99.90
34877;DHT22;21086;44.780;17.194;2022-07-24T06:34:46;26.80;99.90
34877;DHT22;21086;44.780;17.194;2022-07-24T06:37:13;27.00;99.90
34877;DHT22;21086;44.780;17.194;2022-07-24T06:39:39;27.20;99.90
34877;DHT22;21086;44.780;17.194;2022-07-24T06:42:07;27.30;99.90
34877;DHT22;21086;44.780;17.194;2022-07-24T06:44:33;27.50;99.90
34877;DHT22;21086;44.780;17.194;2022-07-24T06:47:03;27.60;99.90
34877;DHT22;21086;44.780;17.194;2022-07-24T06:49:30;27.70;99.90
34877;DHT22;21086;44.780;17.194;2022-07-24T06:51:57;27.80;99.90
34877;DHT22;21086;44.780;17.194;2022-07-24T06:54:23;27.80;99.90
34877;DHT22;21086;44.780;17.194;2022-07-24T06:56:51;27.80;99.90
34877;DHT22;21086;44.780;17.194;2022-07-24T06:59:18;27.80;99.90
34877;DHT22;21086;44.780;17.194;2022-07-24T07:01:46;27.90;99.90
34877;DHT22;21086;44.780;17.194;2022-07-24T07:04:13;28.00;99.90
34877;DHT22;21086;44.780;17.194;2022-07-24T07:06:40;28.20;99.90
34877;DHT22;21086;44.780;17.194;2022-07-24T07:09:11;28.30;99.90
34877;DHT22;21086;44.780;17.194;2022-07-24T07:11:38;28.40;99.90
34877;DHT22;21086;44.780;17.194;2022-07-24T07:14:05;28.60;99.90
34877;DHT22;21086;44.780;17.194;2022-07-24T07:16:31;28.60;99.90
34877;DHT22;21086;44.780;17.194;2022-07-24T07:18:58;28.80;99.90
34877;DHT22;21086;44.780;17.194;2022-07-24T07:21:25;28.90;99.90
34877;DHT22;21086;44.780;17.194;2022-07-24T07:23:52;29.00;99.90
34877;DHT22;21086;44.780;17.194;2022-07-24T07:26:19;29.10;99.90
34877;DHT22;21086;44.780;17.194;2022-07-24T07:28:46;29.10;99.90
34877;DHT22;21086;44.780;17.194;2022-07-24T07:31:13;29.20;99.90
34877;DHT22;21086;44.780;17.194;2022-07-24T07:33:40;29.30;99.90
34877;DHT22;21086;44.780;17.194;2022-07-24T07:36:07;29.30;99.90
34877;DHT22;21086;44.780;17.194;2022-07-24T07:38:35;29.40;99.90
34877;DHT22;21086;44.780;17.194;2022-07-24T07:41:05;29.40;99.90
34877;DHT22;21086;44.780;17.194;2022-07-24T07:43:36;29.40;99.90
34877;DHT22;21086;44.780;17.194;2022-07-24T07:46:04;29.50;99.90
34877;DHT22;21086;44.780;17.194;2022-07-24T07:48:31;29.50;99.90
34877;DHT22;21086;44.780;17.194;2022-07-24T07:50:59;29.60;99.90
34877;DHT22;21086;44.780;17.194;2022-07-24T07:53:26;29.70;99.90
34877;DHT22;21086;44.780;17.194;2022-07-24T07:55:53;29.50;99.90
34877;DHT22;21086;44.780;17.194;2022-07-24T07:58:20;29.60;99.90
34877;DHT22;21086;44.780;17.194;2022-07-24T08:00:49;29.50;99.90
34877;DHT22;21086;44.780;17.194;2022-07-24T08:03:16;29.40;99.90
34877;DHT22;21086;44.780;17.194;2022-07-24T08:05:49;29.50;99.90
34877;DHT22;21086;44.780;17.194;2022-07-24T08:08:24;29.50;99.90
34877;DHT22;21086;44.780;17.194;2022-07-24T08:10:52;29.70;99.90
34877;DHT22;21086;44.780;17.194;2022-07-24T08:13:19;29.80;99.90
34877;DHT22;21086;44.780;17.194;2022-07-24T08:15:46;30.00;99.90
34877;DHT22;21086;44.780;17.194;2022-07-24T08:18:13;30.10;99.90
34877;DHT22;21086;44.780;17.194;2022-07-24T08:20:40;30.20;99.90
34877;DHT22;21086;44.780;17.194;2022-07-24T08:23:07;30.30;99.90
34877;DHT22;21086;44.780;17.194;2022-07-24T08:25:33;30.20;99.90
34877;DHT22;21086;44.780;17.194;2022-07-24T08:28:00;30.30;99.90
34877;DHT22;21086;44.780;17.194;2022-07-24T08:30:27;30.30;99.90
34877;DHT22;21086;44.780;17.194;2022-07-24T08:32:54;30.50;99.90
34877;DHT22;21086;44.780;17.194;2022-07-24T08:35:21;30.70;99.90
34877;DHT22;21086;44.780;17.194;2022-07-24T08:37:58;30.80;99.90
34877;DHT22;21086;44.780;17.194;2022-07-24T08:40:25;31.00;99.90
34877;DHT22;21086;44.780;17.194;2022-07-24T08:42:52;31.00;99.90
34877;DHT22;21086;44.780;17.194;2022-07-24T08:45:19;31.10;99.90
34877;DHT22;21086;44.780;17.194;2022-07-24T08:47:46;31.20;99.90
34877;DHT22;21086;44.780;17.194;2022-07-24T08:50:14;31.20;99.90
34877;DHT22;21086;44.780;17.194;2022-07-24T08:52:42;31.30;99.90
34877;DHT22;21086;44.780;17.194;2022-07-24T08:55:12;31.50;99.90
34877;DHT22;21086;44.780;17.194;2022-07-24T08:57:38;31.60;99.90
34877;DHT22;21086;44.780;17.194;2022-07-24T09:00:06;31.70;99.90
34877;DHT22;21086;44.780;17.194;2022-07-24T09:02:37;31.80;99.90
34877;DHT22;21086;44.780;17.194;2022-07-24T09:05:05;31.80;99.90
34877;DHT22;21086;44.780;17.194;2022-07-24T09:07:32;31.70;99.90
34877;DHT22;21086;44.780;17.194;2022-07-24T09:10:10;31.60;99.90
34877;DHT22;21086;44.780;17.194;2022-07-24T09:12:43;31.50;99.90
34877;DHT22;21086;44.780;17.194;2022-07-24T09:15:16;31.30;99.90
34877;DHT22;21086;44.780;17.194;2022-07-24T09:17:56;31.10;99.90
34877;DHT22;21086;44.780;17.194;2022-07-24T09:20:28;31.10;99.90
34877;DHT22;21086;44.780;17.194;2022-07-24T09:22:58;31.00;99.90
34877;DHT22;21086;44.780;17.194;2022-07-24T09:25:33;30.80;99.90
34877;DHT22;21086;44.780;17.194;2022-07-24T09:28:03;30.80;99.90
34877;DHT22;21086;44.780;17.194;2022-07-24T09:30:37;30.60;99.90
34877;DHT22;21086;44.780;17.194;2022-07-24T09:33:15;30.40;99.90
34877;DHT22;21086;44.780;17.194;2022-07-24T09:35:51;30.20;99.90
34877;DHT22;21086;44.780;17.194;2022-07-24T09:38:24;30.10;99.90
34877;DHT22;21086;44.780;17.194;2022-07-24T09:40:54;30.00;99.90
34877;DHT22;21086;44.780;17.194;2022-07-24T09:43:28;29.80;99.90
34877;DHT22;21086;44.780;17.194;2022-07-24T09:46:08;29.60;99.90
34877;DHT22;21086;44.780;17.194;2022-07-24T09:48:40;29.50;99.90
34877;DHT22;21086;44.780;17.194;2022-07-24T09:51:15;29.40;99.90
34877;DHT22;21086;44.780;17.194;2022-07-24T09:53:43;29.10;99.90
34877;DHT22;21086;44.780;17.194;2022-07-24T09:56:13;28.90;99.90
34877;DHT22;21086;44.780;17.194;2022-07-24T09:58:49;28.70;99.90
34877;DHT22;21086;44.780;17.194;2022-07-24T10:01:20;28.60;99.90
34877;DHT22;21086;44.780;17.194;2022-07-24T10:03:50;28.50;99.90
34877;DHT22;21086;44.780;17.194;2022-07-24T10:06:22;28.40;99.90
34877;DHT22;21086;44.780;17.194;2022-07-24T10:08:53;28.50;99.90
34877;DHT22;21086;44.780;17.194;2022-07-24T10:11:20;28.50;99.90
34877;DHT22;21086;44.780;17.194;2022-07-24T10:13:49;28.60;99.90
34877;DHT22;21086;44.780;17.194;2022-07-24T10:16:26;28.70;99.90
34877;DHT22;21086;44.780;17.194;2022-07-24T10:18:59;29.00;99.90
34877;DHT22;21086;44.780;17.194;2022-07-24T10:21:31;29.20;99.90
34877;DHT22;21086;44.780;17.194;2022-07-24T10:26:41;29.70;99.90
34877;DHT22;21086;44.780;17.194;2022-07-24T10:29:19;29.90;99.90
34877;DHT22;21086;44.780;17.194;2022-07-24T10:31:48;30.20;99.90
34877;DHT22;21086;44.780;17.194;2022-07-24T10:34:43;30.30;99.90
34877;DHT22;21086;44.780;17.194;2022-07-24T10:37:23;30.50;99.90
34877;DHT22;21086;44.780;17.194;2022-07-24T10:42:28;30.70;99.90
34877;DHT22;21086;44.780;17.194;2022-07-24T10:45:17;30.70;99.90
34877;DHT22;21086;44.780;17.194;2022-07-24T10:47:45;30.50;99.90
34877;DHT22;21086;44.780;17.194;2022-07-24T10:50:13;30.30;99.90
34877;DHT22;21086;44.780;17.194;2022-07-24T10:52:41;30.30;99.90
34877;DHT22;21086;44.780;17.194;2022-07-24T11:00:41;30.10;99.90
34877;DHT22;21086;44.780;17.194;2022-07-24T11:03:28;30.10;99.90
34877;DHT22;21086;44.780;17.194;2022-07-24T11:06:10;30.30;99.90
34877;DHT22;21086;44.780;17.194;2022-07-24T11:08:38;30.40;99.90
34877;DHT22;21086;44.780;17.194;2022-07-24T11:11:11;30.60;99.90
34877;DHT22;21086;44.780;17.194;2022-07-24T11:13:43;30.80;99.90
34877;DHT22;21086;44.780;17.194;2022-07-24T11:21:30;31.10;99.90
34877;DHT22;21086;44.780;17.194;2022-07-24T11:24:17;31.20;99.90
34877;DHT22;21086;44.780;17.194;2022-07-24T11:27:13;31.50;99.90
34877;DHT22;21086;44.780;17.194;2022-07-24T11:29:36;31.20;99.90
34877;DHT22;21086;44.780;17.194;2022-07-24T11:32:09;31.10;99.90
34877;DHT22;21086;44.780;17.194;2022-07-24T11:34:46;31.20;99.90
34877;DHT22;21086;44.780;17.194;2022-07-24T11:37:13;31.30;99.90
34877;DHT22;21086;44.780;17.194;2022-07-24T11:39:43;31.60;99.90
34877;DHT22;21086;44.780;17.194;2022-07-24T11:42:13;31.40;99.90
34877;DHT22;21086;44.780;17.194;2022-07-24T11:44:48;32.20;99.90
34877;DHT22;21086;44.780;17.194;2022-07-24T11:47:19;32.60;99.90
34877;DHT22;21086;44.780;17.194;2022-07-24T11:52:22;33.10;99.90
34877;DHT22;21086;44.780;17.194;2022-07-24T11:54:53;33.10;99.90
34877;DHT22;21086;44.780;17.194;2022-07-24T11:57:24;33.00;99.90
34877;DHT22;21086;44.780;17.194;2022-07-24T12:00:17;33.00;99.90
34877;DHT22;21086;44.780;17.194;2022-07-24T12:02:53;32.80;99.90
34877;DHT22;21086;44.780;17.194;2022-07-24T12:07:57;32.70;99.90
34877;DHT22;21086;44.780;17.194;2022-07-24T12:10:26;32.70;99.90
34877;DHT22;21086;44.780;17.194;2022-07-24T12:12:54;32.90;99.90
34877;DHT22;21086;44.780;17.194;2022-07-24T12:15:23;32.70;99.90
34877;DHT22;21086;44.780;17.194;2022-07-24T12:18:00;32.60;99.90
34877;DHT22;21086;44.780;17.194;2022-07-24T12:20:35;32.30;99.90
34877;DHT22;21086;44.780;17.194;2022-07-24T12:23:05;32.10;99.90
34877;DHT22;21086;44.780;17.194;2022-07-24T12:25:33;31.80;99.90
34877;DHT22;21086;44.780;17.194;2022-07-24T12:28:10;31.50;99.90
34877;DHT22;21086;44.780;17.194;2022-07-24T12:30:42;31.30;99.90
34877;DHT22;21086;44.780;17.194;2022-07-24T12:36:07;31.00;99.90
34877;DHT22;21086;44.780;17.194;2022-07-24T12:38:52;30.70;99.90
34877;DHT22;21086;44.780;17.194;2022-07-24T12:41:22;30.50;99.90
34877;DHT22;21086;44.780;17.194;2022-07-24T12:44:05;30.50;99.90
34877;DHT22;21086;44.780;17.194;2022-07-24T12:46:34;30.60;99.90
34877;DHT22;21086;44.780;17.194;2022-07-24T12:49:07;31.10;99.90
34877;DHT22;21086;44.780;17.194;2022-07-24T12:51:57;31.50;99.90
34877;DHT22;21086;44.780;17.194;2022-07-24T12:54:28;32.10;99.90
34877;DHT22;21086;44.780;17.194;2022-07-24T12:56:58;32.60;99.90
34877;DHT22;21086;44.780;17.194;2022-07-24T12:59:33;33.20;99.90
34877;DHT22;21086;44.780;17.194;2022-07-24T13:02:26;33.50;99.90
34877;DHT22;21086;44.780;17.194;2022-07-24T13:05:00;33.60;99.90
34877;DHT22;21086;44.780;17.194;2022-07-24T13:07:28;33.90;99.90
34877;DHT22;21086;44.780;17.194;2022-07-24T13:09:55;34.20;99.90
34877;DHT22;21086;44.780;17.194;2022-07-24T13:12:22;34.50;99.90
34877;DHT22;21086;44.780;17.194;2022-07-24T13:14:50;34.50;99.90
34877;DHT22;21086;44.780;17.194;2022-07-24T13:17:18;34.60;99.90
34877;DHT22;21086;44.780;17.194;2022-07-24T13:19:47;35.00;99.90
34877;DHT22;21086;44.780;17.194;2022-07-24T13:22:15;35.50;99.90
34877;DHT22;21086;44.780;17.194;2022-07-24T13:24:42;35.90;99.90
34877;DHT22;21086;44.780;17.194;2022-07-24T13:27:11;36.50;99.90
34877;DHT22;21086;44.780;17.194;2022-07-24T13:29:42;36.90;99.90
34877;DHT22;21086;44.780;17.194;2022-07-24T13:32:09;37.70;99.90
34877;DHT22;21086;44.780;17.194;2022-07-24T13:34:36;38.60;99.90
34877;DHT22;21086;44.780;17.194;2022-07-24T13:37:06;39.30;99.90
34877;DHT22;21086;44.780;17.194;2022-07-24T13:39:36;40.20;99.90
34877;DHT22;21086;44.780;17.194;2022-07-24T13:42:07;40.90;99.90
34877;DHT22;21086;44.780;17.194;2022-07-24T13:44:34;41.70;99.90
34877;DHT22;21086;44.780;17.194;2022-07-24T13:47:01;42.70;99.90
34877;DHT22;21086;44.780;17.194;2022-07-24T13:49:28;43.70;99.90
34877;DHT22;21086;44.780;17.194;2022-07-24T13:51:55;44.80;99.90
34877;DHT22;21086;44.780;17.194;2022-07-24T13:54:22;45.30;99.90
34877;DHT22;21086;44.780;17.194;2022-07-24T13:56:50;45.30;99.90
34877;DHT22;21086;44.780;17.194;2022-07-24T13:59:18;46.20;99.90
34877;DHT22;21086;44.780;17.194;2022-07-24T14:01:45;47.00;99.90
34877;DHT22;21086;44.780;17.194;2022-07-24T14:04:12;47.10;99.90
34877;DHT22;21086;44.780;17.194;2022-07-24T14:06:57;47.20;99.90
34877;DHT22;21086;44.780;17.194;2022-07-24T14:09:25;47.10;99.90
34877;DHT22;21086;44.780;17.194;2022-07-24T14:11:53;47.50;99.90
34877;DHT22;21086;44.780;17.194;2022-07-24T14:14:21;47.80;99.90
34877;DHT22;21086;44.780;17.194;2022-07-24T14:16:47;48.20;99.90
34877;DHT22;21086;44.780;17.194;2022-07-24T14:19:14;48.60;99.90
34877;DHT22;21086;44.780;17.194;2022-07-24T14:21:42;48.60;99.90
34877;DHT22;21086;44.780;17.194;2022-07-24T14:24:14;48.60;99.90
34877;DHT22;21086;44.780;17.194;2022-07-24T14:26:43;48.60;99.90
34877;DHT22;21086;44.780;17.194;2022-07-24T14:29:11;48.30;99.90
34877;DHT22;21086;44.780;17.194;2022-07-24T14:31:39;48.20;99.90
34877;DHT22;21086;44.780;17.194;2022-07-24T14:34:06;48.40;99.90
34877;DHT22;21086;44.780;17.194;2022-07-24T14:36:34;48.70;99.90
34877;DHT22;21086;44.780;17.194;2022-07-24T14:39:01;48.90;99.90
34877;DHT22;21086;44.780;17.194;2022-07-24T14:41:28;48.70;99.90
34877;DHT22;21086;44.780;17.194;2022-07-24T14:43:55;48.70;99.90
34877;DHT22;21086;44.780;17.194;2022-07-24T14:46:27;48.70;99.90
34877;DHT22;21086;44.780;17.194;2022-07-24T14:48:54;48.50;99.90
34877;DHT22;21086;44.780;17.194;2022-07-24T14:51:21;48.40;99.90
34877;DHT22;21086;44.780;17.194;2022-07-24T14:53:48;48.40;99.90
34877;DHT22;21086;44.780;17.194;2022-07-24T14:56:15;48.10;99.90
34877;DHT22;21086;44.780;17.194;2022-07-24T14:58:42;48.20;99.90
34877;DHT22;21086;44.780;17.194;2022-07-24T15:01:08;48.30;99.90
34877;DHT22;21086;44.780;17.194;2022-07-24T15:03:36;48.20;99.90
34877;DHT22;21086;44.780;17.194;2022-07-24T15:06:02;47.80;99.90
34877;DHT22;21086;44.780;17.194;2022-07-24T15:08:29;47.10;99.90
34877;DHT22;21086;44.780;17.194;2022-07-24T15:10:56;46.80;99.90
34877;DHT22;21086;44.780;17.194;2022-07-24T15:13:23;47.00;99.90
34877;DHT22;21086;44.780;17.194;2022-07-24T15:15:55;47.20;99.90
34877;DHT22;21086;44.780;17.194;2022-07-24T15:18:23;47.20;99.90
34877;DHT22;21086;44.780;17.194;2022-07-24T15:20:50;47.70;99.90
34877;DHT22;21086;44.780;17.194;2022-07-24T15:23:17;47.90;99.90
34877;DHT22;21086;44.780;17.194;2022-07-24T15:25:44;47.50;99.90
34877;DHT22;21086;44.780;17.194;2022-07-24T15:28:11;47.20;99.90
34877;DHT22;21086;44.780;17.194;2022-07-24T15:30:38;47.20;99.90
34877;DHT22;21086;44.780;17.194;2022-07-24T15:33:06;47.40;99.90
34877;DHT22;21086;44.780;17.194;2022-07-24T15:35:33;47.40;99.90
34877;DHT22;21086;44.780;17.194;2022-07-24T15:38:00;47.70;99.90
34877;DHT22;21086;44.780;17.194;2022-07-24T15:40:27;47.00;99.90
34877;DHT22;21086;44.780;17.194;2022-07-24T15:42:57;46.80;99.90
34877;DHT22;21086;44.780;17.194;2022-07-24T15:45:24;46.40;99.90
34877;DHT22;21086;44.780;17.194;2022-07-24T15:47:51;46.50;99.90
34877;DHT22;21086;44.780;17.194;2022-07-24T15:50:18;46.70;99.90